Williamsburg, New Mexico
Current Conditions -  °F | °C
As of 9:53 PM on Wednesday 22 Oct 2014 (Local Time) from KTCS Reporting Station
Clear Clear  
Wind Chill: 64°   Ceiling: Unl
Heat Index: 64°   Visibility: 10mi
Dew Point: 49°   Wind: 3mph
Humidity: 58%   Direction: 180°S
Pressure: 30.16"   Gusts: NA
Location:  33.12°N, 107.29°W
Report Text: KTCS 230353Z AUTO 18003KT 10SM CLR 18/09 A3016 RMK AO2 SLP151 T01780094 TSNO
Loading
Personal Weather Stations






























Interactive Weather Map
Tropical Storm Tracking
New forecast layout! Learn more

10-Day Weather Forecast

Advertisements
Track Severe Weather on mobile